Historique des stations

Station météo de Saint-Firmin-des-Bois

Altitude de la station : 148 m







Données météorologiques pour le 20/10/2021
Date
Heure
Températures Humidité Point de rosée Vitesse
du vent
Direction Rafales Windchill Pression Pluviométrie
Cumul
Date
Heure
Températures Humidité Point de rosée Vitesse
du vent
Direction Rafales Windchill Pression Pluviométrie
Cumul
20/10/2021 23:5915.6 °C87 %13.3 °C24 km/hSO39 km/h12.8 1004 hPa1.6 mm
20/10/2021 23:4417.4 °C81 %14.4 °C16 km/hOSO29 km/h15.6 1002 hPa1.4 mm
20/10/2021 23:2917.3 °C83 %14.4 °C27 km/hSSE29 km/h13.9 1002 hPa1.4 mm
20/10/2021 23:1417.3 °C83 %14.4 °C14 km/hSSO29 km/h16.1 1002 hPa1.4 mm
20/10/2021 22:5917.2 °C85 %14.4 °C16 km/hSSO24 km/h15.6 1003 hPa1.4 mm
20/10/2021 22:4417.2 °C85 %14.4 °C14 km/hSSO24 km/h16.1 1003 hPa1.4 mm
20/10/2021 22:3017.1 °C86 %15.0 °C14 km/hSO24 km/h16.1 1003 hPa1.4 mm
20/10/2021 22:1517.1 °C87 %15.0 °C13 km/hSSO24 km/h16.7 1004 hPa1.4 mm
20/10/2021 22:0017.1 °C88 %15.0 °C11 km/hSSO24 km/h16.7 1004 hPa1.4 mm
20/10/2021 21:4516.9 °C90 %15.6 °C13 km/hSSO24 km/h16.7 1005 hPa1.4 mm
20/10/2021 21:3016.8 °C91 %15.6 °C13 km/hSSO24 km/h16.1 1005 hPa1.4 mm
20/10/2021 21:1516.6 °C91 %15.0 °C13 km/hSSO24 km/h16.1 1006 hPa1.4 mm
20/10/2021 20:5916.6 °C92 %15.6 °C8 km/hSSO24 km/h16.7 1006 hPa1.4 mm
20/10/2021 20:4416.6 °C92 %15.6 °C10 km/hSSO24 km/h16.7 1006 hPa1.4 mm
20/10/2021 20:2916.6 °C92 %15.6 °C10 km/hSSO24 km/h16.7 1006 hPa1.4 mm
20/10/2021 20:1416.7 °C92 %15.6 °C8 km/hSSO24 km/h16.7 1007 hPa1.4 mm
20/10/2021 19:5916.8 °C92 %15.6 °C10 km/hSSO24 km/h16.7 1007 hPa1.4 mm
20/10/2021 19:4416.8 °C92 %15.6 °C10 km/hSSO24 km/h16.7 1007 hPa1.4 mm
20/10/2021 19:2916.8 °C92 %15.6 °C11 km/hSSO24 km/h16.1 1008 hPa1.4 mm
20/10/2021 19:1316.8 °C92 %15.6 °C11 km/hSSO24 km/h16.1 1008 hPa1.4 mm
20/10/2021 18:5916.8 °C92 %15.6 °C11 km/hSSO24 km/h16.1 1008 hPa1.4 mm
20/10/2021 18:4416.9 °C92 %15.6 °C11 km/hSSO24 km/h16.1 1008 hPa1.4 mm
20/10/2021 18:2916.9 °C92 %15.6 °C11 km/hSSO24 km/h16.7 1009 hPa1.4 mm
20/10/2021 18:1417.1 °C92 %15.6 °C11 km/hSSO24 km/h16.7 1009 hPa1.4 mm
20/10/2021 17:5917.2 °C92 %16.1 °C13 km/hSSO24 km/h16.7 1009 hPa1.4 mm
20/10/2021 17:4417.2 °C92 %16.1 °C11 km/hSSO24 km/h16.7 1009 hPa1.4 mm
20/10/2021 17:2917.3 °C93 %16.1 °C11 km/hS24 km/h16.7 1010 hPa1.4 mm
20/10/2021 17:1417.3 °C93 %16.1 °C10 km/hSO24 km/h17.2 1010 hPa1.4 mm
20/10/2021 16:5917.3 °C94 %16.7 °C8 km/hSSO24 km/h17.2 1010 hPa1.4 mm
20/10/2021 16:4417.4 °C94 %16.7 °C10 km/hSSO24 km/h17.2 1010 hPa1.4 mm
20/10/2021 16:2817.3 °C95 %16.7 °C8 km/hSSO24 km/h17.2 1011 hPa1.4 mm
20/10/2021 16:1417.3 °C95 %16.7 °C6 km/hSSO24 km/h17.2 1011 hPa1.4 mm
20/10/2021 15:5917.2 °C95 %16.7 °C11 km/hOSO24 km/h16.7 1011 hPa1.4 mm
20/10/2021 15:4417.4 °C93 %16.1 °C5 km/hSO24 km/h17.2 1011 hPa1.4 mm
20/10/2021 15:2918.2 °C90 %16.7 °C6 km/hSO24 km/h18.3 1011 hPa1 mm
20/10/2021 15:1418.6 °C86 %16.1 °C6 km/hSO24 km/h18.3 1011 hPa1 mm
20/10/2021 14:5918.8 °C86 %16.7 °C6 km/hOSO24 km/h18.9 1012 hPa1 mm
20/10/2021 14:4518.8 °C86 %16.7 °C8 km/hOSO24 km/h18.9 1012 hPa1 mm
20/10/2021 14:3018.8 °C86 %16.7 °C5 km/hOSO24 km/h18.9 1012 hPa1 mm
20/10/2021 14:1519.1 °C85 %16.7 °C8 km/hOSO24 km/h18.9 1012 hPa1 mm
20/10/2021 14:0019.4 °C84 %16.7 °C8 km/hSO24 km/h19.4 1013 hPa1 mm
20/10/2021 13:4519.7 °C84 %17.2 °C8 km/hSO24 km/h20.0 1013 hPa1 mm
20/10/2021 13:2918.6 °C87 %16.7 °C11 km/hSSO23 km/h18.3 1013 hPa1 mm
20/10/2021 13:1418.4 °C88 %16.7 °C10 km/hSO16 km/h18.3 1013 hPa1 mm
20/10/2021 12:5917.8 °C90 %16.1 °C8 km/hSO16 km/h17.8 1013 hPa1 mm
20/10/2021 12:4417.3 °C91 %16.1 °C10 km/hSO14 km/h17.2 1013 hPa1 mm
20/10/2021 12:2916.9 °C91 %15.6 °C10 km/hSSO14 km/h17.2 1013 hPa1 mm
20/10/2021 12:1416.8 °C91 %15.6 °C6 km/hSSO14 km/h16.7 1013 hPa1 mm
20/10/2021 11:5916.5 °C91 %15.0 °C10 km/hSSO14 km/h16.7 1013 hPa1 mm
20/10/2021 11:4415.8 °C92 %14.4 °C10 km/hSSO13 km/h15.0 1014 hPa1 mm
20/10/2021 11:2915.7 °C90 %13.9 °C8 km/hSSO13 km/h15.6 1014 hPa0.8 mm
20/10/2021 11:1415.9 °C88 %13.9 °C10 km/hSSO13 km/h16.1 1014 hPa0.4 mm
20/10/2021 10:5816.3 °C82 %13.3 °C10 km/hSSO13 km/h16.1 1014 hPa-
20/10/2021 10:4416.1 °C82 %12.8 °C6 km/hSSO13 km/h16.1 1014 hPa-
20/10/2021 10:2915.8 °C82 %12.8 °C10 km/hSSO13 km/h16.1 1014 hPa-
20/10/2021 10:1415.7 °C82 %12.8 °C8 km/hSSO13 km/h15.6 1015 hPa-
20/10/2021 09:5915.5 °C82 %12.2 °C6 km/hSSO13 km/h15.6 1014 hPa-
20/10/2021 09:4415.3 °C82 %12.2 °C10 km/hSSO13 km/h15.0 1014 hPa-
20/10/2021 09:2915.1 °C82 %12.2 °C6 km/hSSO13 km/h15.0 1015 hPa-
20/10/2021 09:1414.8 °C82 %11.7 °C5 km/hSSO13 km/h15.0 1014 hPa-
20/10/2021 08:5914.6 °C83 %11.7 °C8 km/hSSO13 km/h14.4 1015 hPa-
20/10/2021 08:4414.6 °C83 %11.7 °C6 km/hSSO13 km/h14.4 1015 hPa-
20/10/2021 08:2914.6 °C82 %11.7 °C6 km/hSSO13 km/h14.4 1015 hPa-
20/10/2021 08:1414.5 °C82 %11.7 °C5 km/hSSO13 km/h14.4 1015 hPa-
20/10/2021 07:5914.7 °C81 %11.7 °C6 km/hSSO13 km/h15.0 1015 hPa-
20/10/2021 07:4414.8 °C80 %11.7 °C10 km/hSSO13 km/h14.4 1014 hPa-
20/10/2021 07:2914.7 °C81 %11.7 °C6 km/hSSO13 km/h15.0 1014 hPa-
20/10/2021 07:1414.8 °C81 %11.7 °C10 km/hSSO13 km/h14.4 1014 hPa-
20/10/2021 06:5914.8 °C81 %11.7 °C6 km/hSSO13 km/h15.0 1015 hPa-
20/10/2021 06:4414.9 °C80 %11.7 °C6 km/hSSO13 km/h15.0 1015 hPa-
20/10/2021 06:2915.1 °C80 %11.7 °C6 km/hSO13 km/h15.0 1015 hPa-
20/10/2021 06:1415.2 °C79 %11.7 °C6 km/hS13 km/h15.0 1015 hPa-
20/10/2021 05:5915.2 °C79 %11.7 °C8 km/hSSO13 km/h15.0 1015 hPa-
20/10/2021 05:4415.1 °C80 %11.7 °C5 km/hS13 km/h15.0 1015 hPa-
20/10/2021 05:3014.9 °C81 %11.7 °C5 km/hS13 km/h15.0 1015 hPa-
20/10/2021 05:1514.7 °C81 %11.7 °C3 km/hS13 km/h15.0 1015 hPa-
20/10/2021 05:0014.5 °C81 %11.1 °C8 km/hSSO11 km/h14.4 1016 hPa-
20/10/2021 04:4514.3 °C81 %11.1 °C5 km/hSSO11 km/h14.4 1016 hPa-
20/10/2021 04:3014.4 °C81 %11.1 °C8 km/hSSO11 km/h14.4 1016 hPa-
20/10/2021 04:1514.4 °C80 %11.1 °C5 km/hSSO11 km/h14.4 1016 hPa-
20/10/2021 04:0014.4 °C80 %11.1 °C8 km/hS11 km/h14.4 1016 hPa-
20/10/2021 03:4514.3 °C80 %11.1 °C5 km/hSSO11 km/h14.4 1016 hPa-
20/10/2021 03:2914.4 °C80 %11.1 °C5 km/hS11 km/h14.4 1017 hPa-
20/10/2021 03:1414.4 °C80 %11.1 °C6 km/hS11 km/h14.4 1017 hPa-
20/10/2021 02:5914.4 °C80 %11.1 °C3 km/hS11 km/h14.4 1017 hPa-
20/10/2021 02:4414.4 °C80 %11.1 °C6 km/hSSO11 km/h14.4 1017 hPa-
20/10/2021 02:2914.5 °C80 %11.1 °C5 km/hSSO11 km/h14.4 1017 hPa-
20/10/2021 02:1414.5 °C80 %11.1 °C6 km/hS10 km/h14.4 1017 hPa-
20/10/2021 01:5914.6 °C80 %11.1 °C5 km/hS10 km/h14.4 1018 hPa-
20/10/2021 01:4415.0 °C79 %11.7 °C3 km/hS8 km/h15.0 1018 hPa-
20/10/2021 01:2915.5 °C77 %11.7 °C5 km/hS8 km/h15.6 1018 hPa-
20/10/2021 01:1415.4 °C77 %11.1 °C6 km/hSSO8 km/h15.6 1018 hPa-
20/10/2021 00:5915.2 °C77 %11.1 °C5 km/hSSO6 km/h15.0 1019 hPa-
20/10/2021 00:4415.4 °C77 %11.1 °C3 km/hSSO6 km/h15.6 1019 hPa-
20/10/2021 00:2915.6 °C76 %11.1 °C5 km/hSSO6 km/h15.6 1019 hPa-
20/10/2021 00:1415.7 °C76 %11.7 °C5 km/hSSO6 km/h15.6 1019 hPa-


Minima :

Température : 14.3 °C
Humidité : 76 %
Point de rosée : 11.1 °C
Vent moyen : 3 km/h
Windchill : 12.8
Pression atm. : 1002 hPa
Maxima :

Température : 19.7 °C
Humidité : 95 %
Point de rosée : 17.2 °C
Vent moyen : 27 km/h
Windchill : 20.0
Pression atm. : 1019 hPa
Rafales max : 39 km/h
Cumul de pluie sur 24H : 1.6 mm

Saint-Firmin-des-Bois est une commune du département Loiret (45).
La station météorologique du réseau de l'association la plus proche de Saint-Firmin-des-Bois est celle de Cudot



Icône Facebook Association Météo Centre Icône Twitter Association Météo Centre Icône Chaîne Youtube Association Météo Centre Icône contact Association Météo Centre Icône Insta Association Météo Centre